createdAt,value
2022-08-07T00:04:00.247Z,56.5
2022-08-07T00:14:00.131Z,56.5
2022-08-07T00:24:00.240Z,56.5
2022-08-07T00:34:00.130Z,56.5
2022-08-07T00:44:02.731Z,56.5
2022-08-07T00:54:00.348Z,56.5
2022-08-07T01:04:00.515Z,56.5
2022-08-07T01:14:00.334Z,56.5
2022-08-07T01:24:00.227Z,56.5
2022-08-07T01:34:00.339Z,57
2022-08-07T01:44:00.251Z,57
2022-08-07T01:54:00.755Z,57
2022-08-07T02:04:00.270Z,57
2022-08-07T02:14:02.418Z,57
2022-08-07T02:24:00.268Z,57
2022-08-07T02:34:03.359Z,57
2022-08-07T02:44:00.430Z,57
2022-08-07T02:54:00.335Z,57.5
2022-08-07T03:04:03.287Z,57.5
2022-08-07T03:14:01.731Z,57.5
2022-08-07T03:24:17.430Z,57.5
2022-08-07T03:34:00.326Z,57.5
2022-08-07T03:44:00.454Z,58
2022-08-07T03:54:06.031Z,58
2022-08-07T04:04:00.416Z,58
2022-08-07T04:14:09.593Z,58.5
2022-08-07T04:24:02.147Z,58.5
2022-08-07T04:34:00.508Z,58.5
2022-08-07T04:44:10.749Z,58.5
2022-08-07T04:54:02.201Z,59
2022-08-07T05:04:07.218Z,59
2022-08-07T05:14:45.094Z,59
2022-08-07T05:24:00.656Z,59
2022-08-07T05:34:01.672Z,59.5
2022-08-07T05:44:08.872Z,59.5
2022-08-07T05:54:08.755Z,59.5
2022-08-07T06:04:00.952Z,59.5
2022-08-07T06:14:11.126Z,60
2022-08-07T06:24:39.080Z,60
2022-08-07T06:34:00.527Z,60
2022-08-07T06:44:01.872Z,60
2022-08-07T06:54:12.471Z,60
2022-08-07T07:04:05.623Z,59.5
2022-08-07T07:14:01.630Z,60
2022-08-07T07:24:05.884Z,60
2022-08-07T07:34:00.694Z,60
2022-08-07T07:44:14.967Z,60
2022-08-07T07:54:00.732Z,59.5
2022-08-07T08:04:06.719Z,59.5
2022-08-07T08:14:00.691Z,59
2022-08-07T08:24:00.787Z,59
2022-08-07T08:34:00.681Z,59
2022-08-07T08:44:00.791Z,58.5
2022-08-07T08:54:00.683Z,58.5
2022-08-07T09:04:00.785Z,58.5
2022-08-07T09:14:00.681Z,59.5
2022-08-07T09:24:34.456Z,60
2022-08-07T09:34:00.913Z,60
2022-08-07T09:44:03.786Z,59
2022-08-07T09:54:02.744Z,60
2022-08-07T10:04:03.004Z,58.5
2022-08-07T10:14:02.281Z,57
2022-08-07T10:24:04.444Z,57.5
2022-08-07T10:34:05.285Z,57
2022-08-07T10:44:02.469Z,57
2022-08-07T10:54:00.900Z,56
2022-08-07T11:04:11.126Z,56.5
2022-08-07T11:14:42.896Z,56.5
2022-08-07T11:24:00.964Z,56
2022-08-07T11:34:01.040Z,55
2022-08-07T11:44:11.237Z,54.5
2022-08-07T11:54:02.326Z,53.5
2022-08-07T12:04:00.983Z,52.5
2022-08-07T12:14:01.034Z,51.5
2022-08-07T12:24:05.206Z,50.5
2022-08-07T12:34:04.029Z,49.5
2022-08-07T12:44:03.314Z,49
2022-08-07T12:54:02.605Z,49
2022-08-07T13:04:04.596Z,48.5
2022-08-07T13:14:01.032Z,48
2022-08-07T13:24:02.997Z,47.5
2022-08-07T13:34:14.835Z,47
2022-08-07T13:44:00.933Z,46.5
2022-08-07T13:54:01.907Z,46
2022-08-07T14:04:05.883Z,46
2022-08-07T14:14:01.019Z,46
2022-08-07T14:24:01.919Z,46
2022-08-07T14:34:01.092Z,46
2022-08-07T14:44:08.157Z,46.5
2022-08-07T14:54:10.038Z,46
2022-08-07T15:14:01.063Z,46
2022-08-07T15:25:03.441Z,45.5
2022-08-07T15:34:01.074Z,51
2022-08-07T15:44:01.161Z,44.5
2022-08-07T15:54:01.064Z,44.5
2022-08-07T16:04:01.192Z,44
2022-08-07T16:14:03.044Z,44.5
2022-08-07T16:24:01.154Z,45
2022-08-07T16:34:06.946Z,45.5
2022-08-07T16:44:02.854Z,45.5
2022-08-07T16:54:06.955Z,46.5
2022-08-07T17:04:01.143Z,51
2022-08-07T17:14:17.653Z,53.5
2022-08-07T17:24:01.145Z,55.5
2022-08-07T17:34:10.683Z,57.5
2022-08-07T17:44:06.546Z,59
2022-08-07T17:54:06.046Z,60
2022-08-07T18:04:03.818Z,60.5
2022-08-07T18:14:01.460Z,61
2022-08-07T18:24:01.355Z,61.5
2022-08-07T18:34:01.252Z,62
2022-08-07T18:44:01.360Z,62.5
2022-08-07T18:54:01.243Z,63
2022-08-07T19:04:01.394Z,63
2022-08-07T19:14:01.462Z,63.5
2022-08-07T19:24:01.348Z,63.5
2022-08-07T19:34:01.436Z,64
2022-08-07T19:44:01.332Z,64.5
2022-08-07T19:54:30.199Z,64.5
2022-08-07T20:04:01.413Z,65
2022-08-07T20:14:01.743Z,65
2022-08-07T20:24:01.325Z,65.5
2022-08-07T20:34:01.423Z,63.5
2022-08-07T20:44:01.510Z,61
2022-08-07T20:54:02.446Z,60.5
2022-08-07T21:04:20.089Z,60.5
2022-08-07T21:14:20.328Z,60.5
2022-08-07T21:24:01.556Z,60.5
2022-08-07T21:34:01.469Z,60.5
2022-08-07T21:44:01.715Z,61
2022-08-07T21:54:01.471Z,61.5
2022-08-07T22:04:02.799Z,62
2022-08-07T22:14:04.936Z,62
2022-08-07T22:24:01.593Z,62
2022-08-07T22:34:01.501Z,62
2022-08-07T22:44:01.598Z,62
2022-08-07T22:54:05.840Z,62.5
2022-08-07T23:04:01.614Z,63.5
2022-08-07T23:14:09.287Z,63.5
2022-08-07T23:24:04.902Z,63.5
2022-08-07T23:34:24.327Z,63.5
2022-08-07T23:44:01.620Z,63
2022-08-07T23:54:01.706Z,63
